Decoded Metar for LEHC (HUESCA in SPAIN) (IATA:N/A) | Meteo·Mobile Aviation Weather
aviador You're here:

LEHC Decoded Metar

HUESCA in SPAIN
Report Time2019-07-21 18:00:00
UTC Time2019-07-21 18:17:28
Flight Rules vfr VFR
Wind070° at 10 kt
W.Decomp.*RWY 12: 6.6 kt HW 7.5 kt LCW
Visibility9999 m
Phenomena:N/A
Clouds:N/A
Expected CloudBase > 7,200 ft AGL from Temp-Dew spread
CeilingNone
Temp32°C (ISA +21)
Dew Point14°C (33% RH)
Heat Index31.2°C
AAT29.6°C
QNH1020 hPa
Density Alt4,085 ft
Elevation1,768 ft
Report Wrong Elevation
Raw Report
METAR LEHC 211800Z AUTO 07010KT 9999 NCD 32/14 Q1020=

Extra information for LEHC:More info

Metar Taf Metar & Taf Last 4 Metars F.Rules Stats Wind Profile Meteogram Temp Stats Airport Information Weather charts Add Link Nearby VenuesMetar ALERT Operation Metar Decoded Social comments